Terminal Aerodrome Forecast
Issued by NWS

Home | Current Version | Previous Version | Text Only | Print | Product List | Glossary Off
Versions: 1 2 3 4 5 6 7 8 9 10 11 12 13

004
FTUS43 KOAX 021144
TAFCDR
TAF
KCDR 021144Z 0212/0312 26004KT P6SM SKC
     FM021600 33011KT P6SM SCT100
     FM022200 32006KT P6SM VCSH SCT050 BKN100=

USA.gov is the U.S. government's official web portal to all federal, state and local government web resources and services.